Time;durP1;ratioP1;P1;durP2;ratioP2;P2;SDS_P1;SDS_P2;PMS_P1;PMS_P2;Temp;Humidity;BMP_temperature;BMP_pressure;BME280_temperature;BME280_humidity;BME280_pressure;Samples;Min_cycle;Max_cycle;Signal;HPM_P1;HPM_P2
2021/07/27 00:01:50;;;;;;;1.52;0.50;;;;;;;-142.37;100.00;59669.53;5034490;28;20053;-59
2021/07/27 00:04:17;;;;;;;2.20;0.40;;;;;;;-142.37;100.00;59669.53;5034230;28;20380;-60
2021/07/27 00:06:42;;;;;;;0.50;0.40;;;;;;;-142.37;100.00;59669.53;5033549;28;20476;-59
2021/07/27 00:09:07;;;;;;;2.50;0.40;;;;;;;-142.37;100.00;59669.53;5034657;28;20180;-60
2021/07/27 00:11:33;;;;;;;0.50;0.32;;;;;;;-142.37;100.00;59669.53;5034627;28;20029;-59
2021/07/27 00:13:59;;;;;;;1.67;0.28;;;;;;;-142.37;100.00;59669.53;5034125;28;20029;-60
2021/07/27 00:16:24;;;;;;;1.58;0.60;;;;;;;-142.37;100.00;59669.53;5034460;28;20025;-59
2021/07/27 00:18:49;;;;;;;1.17;0.52;;;;;;;-142.37;100.00;59669.53;5034369;28;20419;-59
2021/07/27 00:21:15;;;;;;;0.25;0.20;;;;;;;-142.37;100.00;59669.53;5034290;28;20021;-59
2021/07/27 00:23:40;;;;;;;1.20;0.60;;;;;;;-142.37;100.00;59669.53;5033941;28;20072;-59
2021/07/27 00:26:13;;;;;;;1.25;0.63;;;;;;;-142.37;100.00;59669.53;5033951;28;20133;-59
2021/07/27 00:28:38;;;;;;;2.33;0.47;;;;;;;-142.37;100.00;59669.53;5034187;28;20044;-59
2021/07/27 00:31:04;;;;;;;0.88;0.30;;;;;;;-142.37;100.00;59669.53;5034179;28;20025;-59
2021/07/27 00:33:29;;;;;;;1.45;0.35;;;;;;;-142.37;100.00;59669.53;5034157;28;20108;-59
2021/07/27 00:35:54;;;;;;;0.43;0.40;;;;;;;-142.37;100.00;59669.53;5034145;28;20486;-59
2021/07/27 00:38:22;;;;;;;1.48;0.30;;;;;;;-142.37;100.00;59669.53;5034120;28;20060;-59
2021/07/27 00:40:48;;;;;;;0.65;0.32;;;;;;;-142.37;100.00;59669.53;5033956;28;20071;-58
2021/07/27 00:43:19;;;;;;;1.88;0.50;;;;;;;-142.37;100.00;59669.53;5033187;28;20022;-59
2021/07/27 00:45:45;;;;;;;0.80;0.35;;;;;;;-142.37;100.00;59669.53;5033804;28;20033;-59
2021/07/27 00:48:11;;;;;;;0.43;0.43;;;;;;;-142.37;100.00;59669.53;5033726;28;20385;-60
2021/07/27 00:50:38;;;;;;;1.05;0.30;;;;;;;-142.37;100.00;59669.53;5033691;28;20032;-59
2021/07/27 00:53:05;;;;;;;1.77;0.60;;;;;;;-142.37;100.00;59669.53;5033614;28;20025;-59
2021/07/27 00:55:31;;;;;;;2.47;0.45;;;;;;;-142.37;100.00;59669.53;5033513;28;20037;-59
2021/07/27 00:57:57;;;;;;;2.85;0.45;;;;;;;-142.37;100.00;59669.53;5033740;28;20022;-59
2021/07/27 01:00:24;;;;;;;1.10;0.60;;;;;;;-142.37;100.00;59669.53;5025817;28;20046;-58
2021/07/27 01:02:50;;;;;;;2.17;0.40;;;;;;;-142.37;100.00;59669.53;5019471;28;20471;-59
2021/07/27 01:05:16;;;;;;;0.45;0.30;;;;;;;-142.37;100.00;59669.53;5033367;28;20467;-59
2021/07/27 01:07:42;;;;;;;0.28;0.22;;;;;;;-142.37;100.00;59669.53;5033701;28;20033;-59
2021/07/27 01:10:10;;;;;;;0.88;0.40;;;;;;;-142.37;100.00;59669.53;5033385;28;20503;-59
2021/07/27 01:12:37;;;;;;;1.42;0.38;;;;;;;-142.37;100.00;59669.53;5033154;28;20360;-59
2021/07/27 01:15:03;;;;;;;3.28;0.50;;;;;;;-142.37;100.00;59669.53;5033048;28;20029;-59
2021/07/27 01:17:29;;;;;;;1.35;0.50;;;;;;;-142.37;100.00;59669.53;5033329;28;20033;-59
2021/07/27 01:20:05;;;;;;;1.65;0.60;;;;;;;-142.37;100.00;59669.53;5033532;28;20044;-59
2021/07/27 01:39:06;;;;;;;1.23;0.30;;;;;;;-142.37;100.00;59669.53;5033058;28;20632;-59
2021/07/27 01:44:01;;;;;;;1.30;0.30;;;;;;;-142.37;100.00;59669.53;5033033;28;20025;-59
2021/07/27 01:46:28;;;;;;;1.30;0.30;;;;;;;-142.37;100.00;59669.53;5033074;28;20025;-60
2021/07/27 01:48:54;;;;;;;0.40;0.35;;;;;;;-142.37;100.00;59669.53;5033076;28;20040;-59
2021/07/27 01:51:19;;;;;;;0.30;0.20;;;;;;;-142.37;100.00;59669.53;5032375;28;20104;-59
2021/07/27 01:53:49;;;;;;;1.08;0.47;;;;;;;-142.37;100.00;59669.53;5032803;28;20455;-59
2021/07/27 01:56:16;;;;;;;0.77;0.77;;;;;;;-142.37;100.00;59669.53;5033041;28;20053;-59
2021/07/27 01:58:42;;;;;;;0.40;0.35;;;;;;;-142.37;100.00;59669.53;5032943;28;20037;-59
2021/07/27 02:01:07;;;;;;;0.88;0.40;;;;;;;-142.37;100.00;59669.53;5032711;28;20026;-66
2021/07/27 02:03:32;;;;;;;0.93;0.28;;;;;;;-142.37;100.00;59669.53;5032529;28;20030;-65
2021/07/27 02:05:58;;;;;;;2.05;0.50;;;;;;;-142.37;100.00;59669.53;5032610;28;20037;-64
2021/07/27 02:08:24;;;;;;;2.75;0.52;;;;;;;-142.37;100.00;59669.53;5031993;28;20444;-64
2021/07/27 02:10:53;;;;;;;0.50;0.30;;;;;;;-142.37;100.00;59669.53;5025239;28;20029;-65
2021/07/27 02:13:27;;;;;;;2.67;0.30;;;;;;;-142.37;100.00;59669.53;5020071;28;20013;-64
2021/07/27 02:15:53;;;;;;;1.27;0.50;;;;;;;-142.37;100.00;59669.53;5031811;28;20032;-64
2021/07/27 02:18:18;;;;;;;0.85;0.20;;;;;;;-142.37;100.00;59669.53;5032454;28;20034;-64
2021/07/27 02:20:43;;;;;;;0.73;0.52;;;;;;;-142.37;100.00;59669.53;5032824;28;20471;-65
2021/07/27 02:23:09;;;;;;;2.30;0.35;;;;;;;-142.37;100.00;59669.53;5032398;28;20459;-65
2021/07/27 02:25:34;;;;;;;1.85;0.25;;;;;;;-142.37;100.00;59669.53;5032680;28;20033;-65
2021/07/27 02:28:00;;;;;;;1.60;0.75;;;;;;;-142.37;100.00;59669.53;5032484;28;20482;-64
2021/07/27 02:30:27;;;;;;;0.38;0.20;;;;;;;-142.37;100.00;59669.53;5032787;28;20025;-64
2021/07/27 02:32:52;;;;;;;1.42;0.40;;;;;;;-142.37;100.00;59669.53;5032538;28;20061;-64
2021/07/27 02:35:26;;;;;;;1.50;0.50;;;;;;;-142.37;100.00;59669.53;5032535;28;20041;-64
2021/07/27 02:37:52;;;;;;;0.68;0.60;;;;;;;-142.37;100.00;59669.53;5032416;28;20021;-65
2021/07/27 02:40:17;;;;;;;0.77;0.32;;;;;;;-142.37;100.00;59669.53;5032410;28;20026;-64
2021/07/27 02:42:42;;;;;;;1.05;0.50;;;;;;;-142.37;100.00;59669.53;5032359;28;20026;-64
2021/07/27 02:45:12;;;;;;;0.90;0.47;;;;;;;-142.37;100.00;59669.53;5032064;28;20026;-64
2021/07/27 02:47:42;;;;;;;1.30;0.25;;;;;;;-142.37;100.00;59669.53;5032464;28;20087;-65
2021/07/27 02:50:09;;;;;;;0.65;0.50;;;;;;;-142.37;100.00;59669.53;5033485;28;20021;-64
2021/07/27 02:52:35;;;;;;;2.05;0.35;;;;;;;-142.37;100.00;59669.53;5036228;28;20049;-66
2021/07/27 02:55:01;;;;;;;1.00;0.45;;;;;;;-142.37;100.00;59669.53;5035911;28;20467;-65
2021/07/27 02:57:27;;;;;;;2.30;0.47;;;;;;;-142.37;100.00;59669.53;5035711;28;20029;-65
2021/07/27 03:00:03;;;;;;;2.38;0.40;;;;;;;-142.37;100.00;59669.53;5035836;28;20040;-63
2021/07/27 03:02:39;;;;;;;0.80;0.35;;;;;;;-142.37;100.00;59669.53;5035886;28;20029;-64
2021/07/27 03:05:06;;;;;;;0.93;0.45;;;;;;;-142.37;100.00;59669.53;5035615;28;20025;-64
2021/07/27 03:08:09;;;;;;;1.45;0.47;;;;;;;-142.37;100.00;59669.53;5035754;28;20063;-65
2021/07/27 03:10:23;;;;;;;1.05;0.60;;;;;;;-142.37;100.00;59669.53;5032724;28;20040;-64
2021/07/27 03:12:49;;;;;;;1.17;0.47;;;;;;;-142.37;100.00;59669.53;5034711;28;20379;-64
2021/07/27 03:15:16;;;;;;;1.48;0.35;;;;;;;-142.37;100.00;59669.53;5035653;28;20018;-64
2021/07/27 03:17:42;;;;;;;0.68;0.30;;;;;;;-142.37;100.00;59669.53;5035410;28;20033;-64
2021/07/27 03:20:09;;;;;;;1.63;0.43;;;;;;;-142.37;100.00;59669.53;5035381;28;20025;-64
2021/07/27 03:22:34;;;;;;;0.95;0.40;;;;;;;-142.37;100.00;59669.53;5035602;28;20456;-64
2021/07/27 03:25:00;;;;;;;2.78;0.60;;;;;;;-142.37;100.00;59669.53;5035473;28;20026;-65
2021/07/27 03:27:25;;;;;;;2.58;0.40;;;;;;;-142.37;100.00;59669.53;5035457;28;20025;-66
2021/07/27 03:29:51;;;;;;;0.35;0.20;;;;;;;-142.37;100.00;59669.53;5035586;28;20029;-65
2021/07/27 03:32:16;;;;;;;0.65;0.40;;;;;;;-142.37;100.00;59669.53;5035035;28;20025;-65
2021/07/27 03:34:42;;;;;;;1.02;0.50;;;;;;;-142.37;100.00;59669.53;5033128;28;20468;-64
2021/07/27 03:37:10;;;;;;;1.55;0.45;;;;;;;-142.37;100.00;59669.53;5024705;28;20041;-64
2021/07/27 03:39:36;;;;;;;1.45;0.40;;;;;;;-142.37;100.00;59669.53;5016353;28;20041;-64
2021/07/27 03:42:01;;;;;;;1.08;0.32;;;;;;;-142.37;100.00;59669.53;5015429;28;20029;-65
2021/07/27 03:44:27;;;;;;;0.38;0.17;;;;;;;-142.37;100.00;59669.53;5014935;28;20022;-65
2021/07/27 03:46:53;;;;;;;0.75;0.28;;;;;;;-142.37;100.00;59669.53;5022150;28;20061;-65
2021/07/27 03:49:18;;;;;;;0.45;0.30;;;;;;;-142.37;100.00;59669.53;5033836;28;20029;-65
2021/07/27 03:51:43;;;;;;;0.70;0.30;;;;;;;-142.37;100.00;59669.53;5035125;28;20433;-64
2021/07/27 03:54:08;;;;;;;0.82;0.40;;;;;;;-142.37;100.00;59669.53;5034659;28;20038;-63
2021/07/27 03:56:34;;;;;;;1.23;0.50;;;;;;;-142.37;100.00;59669.53;5034693;28;20022;-64
2021/07/27 03:59:03;;;;;;;0.75;0.40;;;;;;;-142.37;100.00;59669.53;5034712;28;20060;-65
2021/07/27 04:01:28;;;;;;;0.95;0.20;;;;;;;-142.37;100.00;59669.53;5033800;28;20494;-64
2021/07/27 04:03:53;;;;;;;0.98;0.40;;;;;;;-142.37;100.00;59669.53;5034442;28;20025;-66
2021/07/27 04:06:19;;;;;;;2.28;0.50;;;;;;;-142.37;100.00;59669.53;5033303;28;20018;-66
2021/07/27 04:08:44;;;;;;;2.60;0.30;;;;;;;-142.37;100.00;59669.53;5034070;28;20028;-65
2021/07/27 04:11:09;;;;;;;0.13;0.13;;;;;;;-142.37;100.00;59669.53;5034657;28;20036;-65
2021/07/27 04:13:35;;;;;;;0.50;0.30;;;;;;;-142.37;100.00;59669.53;5031417;28;20025;-65
2021/07/27 04:16:02;;;;;;;0.20;0.20;;;;;;;-142.37;100.00;59669.53;5022030;28;20029;-68
2021/07/27 04:18:28;;;;;;;1.63;0.30;;;;;;;-142.37;100.00;59669.53;5034520;28;20034;-65
2021/07/27 04:20:57;;;;;;;0.35;0.20;;;;;;;-142.37;100.00;59669.53;5034638;28;20129;-64
2021/07/27 04:23:22;;;;;;;0.80;0.25;;;;;;;-142.37;100.00;59669.53;5019191;28;20038;-65
2021/07/27 04:25:48;;;;;;;0.32;0.20;;;;;;;-142.37;100.00;59669.53;5020060;28;20028;-65
2021/07/27 04:28:13;;;;;;;0.55;0.30;;;;;;;-142.37;100.00;59669.53;5031179;28;20025;-66
2021/07/27 04:30:39;;;;;;;0.75;0.30;;;;;;;-142.37;100.00;59669.53;5014451;28;20026;-64
2021/07/27 04:33:05;;;;;;;0.80;0.40;;;;;;;-142.37;100.00;59669.53;5013002;28;20075;-65
2021/07/27 04:35:30;;;;;;;1.65;0.20;;;;;;;-142.37;100.00;59669.53;5016961;28;20476;-64
2021/07/27 04:37:57;;;;;;;0.30;0.20;;;;;;;-142.37;100.00;59669.53;5034101;28;20460;-64
2021/07/27 04:40:23;;;;;;;0.80;0.30;;;;;;;-142.37;100.00;59669.53;5034054;28;20037;-66
2021/07/27 04:42:48;;;;;;;0.47;0.30;;;;;;;-142.37;100.00;59669.53;5034132;28;20029;-64
2021/07/27 04:45:13;;;;;;;1.25;0.32;;;;;;;-142.37;100.00;59669.53;5033812;28;20061;-65
2021/07/27 04:47:39;;;;;;;0.28;0.20;;;;;;;-142.37;100.00;59669.53;5033656;28;20115;-66
2021/07/27 04:50:06;;;;;;;0.40;0.10;;;;;;;-142.37;100.00;59669.53;5033761;28;20410;-65
2021/07/27 04:52:32;;;;;;;0.45;0.30;;;;;;;-142.37;100.00;59669.53;5034002;28;20581;-66
2021/07/27 04:54:57;;;;;;;0.20;0.20;;;;;;;-142.37;100.00;59669.53;5034096;28;20057;-65
2021/07/27 04:57:22;;;;;;;0.82;0.30;;;;;;;-142.37;100.00;59669.53;5033573;28;20104;-65
2021/07/27 04:59:47;;;;;;;0.50;0.20;;;;;;;-142.37;100.00;59669.53;5033276;28;20400;-65
2021/07/27 05:02:13;;;;;;;1.98;0.50;;;;;;;-142.37;100.00;59669.53;5033560;28;20025;-64
2021/07/27 05:04:39;;;;;;;0.25;0.25;;;;;;;-142.37;100.00;59669.53;5033325;28;20033;-65
2021/07/27 05:07:04;;;;;;;0.75;0.22;;;;;;;-142.37;100.00;59669.53;5033568;28;20071;-65
2021/07/27 05:09:30;;;;;;;0.47;0.30;;;;;;;-142.37;100.00;59669.53;5033909;28;20518;-64
2021/07/27 05:11:56;;;;;;;0.85;0.20;;;;;;;-142.37;100.00;59669.53;5033371;28;20026;-64
2021/07/27 05:14:22;;;;;;;0.80;0.50;;;;;;;-142.37;100.00;59669.53;5033308;28;20032;-64
2021/07/27 05:16:47;;;;;;;1.08;0.25;;;;;;;-142.37;100.00;59669.53;5033128;28;20021;-64
2021/07/27 05:19:12;;;;;;;0.95;0.22;;;;;;;-142.37;100.00;59669.53;5033176;28;20363;-64
2021/07/27 05:21:38;;;;;;;1.00;0.32;;;;;;;-142.37;100.00;59669.53;5033450;28;20044;-65
2021/07/27 05:24:04;;;;;;;1.25;0.40;;;;;;;-142.37;100.00;59669.53;5032868;28;20132;-65
2021/07/27 05:26:29;;;;;;;1.33;0.40;;;;;;;-142.37;100.00;59669.53;5033268;28;20033;-66
2021/07/27 05:28:54;;;;;;;0.15;0.10;;;;;;;-142.37;100.00;59669.53;5033460;28;20384;-66
2021/07/27 05:31:20;;;;;;;2.20;0.40;;;;;;;-142.37;100.00;59669.53;5032983;28;20495;-66
2021/07/27 05:33:46;;;;;;;1.10;0.22;;;;;;;-142.37;100.00;59669.53;5033232;28;20554;-64
2021/07/27 05:36:11;;;;;;;0.90;0.40;;;;;;;-142.37;100.00;59669.53;5032777;28;20037;-65
2021/07/27 05:38:37;;;;;;;0.85;0.57;;;;;;;-142.37;100.00;59669.53;5032889;28;20056;-66
2021/07/27 05:41:03;;;;;;;2.22;0.40;;;;;;;-142.37;100.00;59669.53;5033112;28;20495;-65
2021/07/27 05:43:28;;;;;;;0.75;0.22;;;;;;;-142.37;100.00;59669.53;5032620;28;20029;-66
2021/07/27 05:45:53;;;;;;;0.60;0.28;;;;;;;-142.37;100.00;59669.53;5032986;28;20026;-65
2021/07/27 05:48:19;;;;;;;2.20;0.50;;;;;;;-142.37;100.00;59669.53;5032929;28;20037;-65
2021/07/27 05:50:44;;;;;;;0.60;0.35;;;;;;;-142.37;100.00;59669.53;5032699;28;20025;-66
2021/07/27 05:53:09;;;;;;;1.67;0.28;;;;;;;-142.37;100.00;59669.53;5032935;28;20360;-65
2021/07/27 05:55:35;;;;;;;1.35;0.32;;;;;;;-142.37;100.00;59669.53;5032713;28;20063;-66
2021/07/27 05:58:00;;;;;;;1.80;0.50;;;;;;;-142.37;100.00;59669.53;5032756;28;20034;-65
2021/07/27 06:00:25;;;;;;;0.65;0.25;;;;;;;-142.37;100.00;59669.53;5026797;28;20050;-66
2021/07/27 06:02:50;;;;;;;0.95;0.30;;;;;;;-142.37;100.00;59669.53;5033074;28;20014;-66
2021/07/27 06:05:16;;;;;;;0.32;0.20;;;;;;;-142.37;100.00;59669.53;5032502;28;20029;-66
2021/07/27 06:07:41;;;;;;;1.42;0.30;;;;;;;-142.37;100.00;59669.53;5033051;28;20057;-66
2021/07/27 06:10:07;;;;;;;0.57;0.38;;;;;;;-142.37;100.00;59669.53;5032556;28;20104;-64
2021/07/27 06:12:32;;;;;;;1.10;0.40;;;;;;;-142.37;100.00;59669.53;5032897;28;20064;-66
2021/07/27 06:14:58;;;;;;;0.68;0.32;;;;;;;-142.37;100.00;59669.53;5032545;28;20048;-65
2021/07/27 06:17:23;;;;;;;0.43;0.30;;;;;;;-142.37;100.00;59669.53;5031696;28;20387;-65
2021/07/27 06:19:48;;;;;;;0.88;0.35;;;;;;;-142.37;100.00;59669.53;5032700;28;20032;-66
2021/07/27 06:22:16;;;;;;;0.20;0.20;;;;;;;-142.37;100.00;59669.53;5032473;28;20029;-66
2021/07/27 06:24:42;;;;;;;0.90;0.30;;;;;;;-142.37;100.00;59669.53;5032862;28;20133;-66
2021/07/27 06:27:07;;;;;;;1.25;0.40;;;;;;;-142.37;100.00;59669.53;5036420;28;20391;-65
2021/07/27 06:29:32;;;;;;;1.40;0.50;;;;;;;-142.37;100.00;59669.53;5036217;28;20033;-65
2021/07/27 06:31:58;;;;;;;1.30;0.30;;;;;;;-142.37;100.00;59669.53;5036031;28;20360;-66
2021/07/27 06:34:23;;;;;;;0.45;0.40;;;;;;;-142.37;100.00;59669.53;5033970;28;20084;-65
2021/07/27 06:36:48;;;;;;;1.20;0.20;;;;;;;-142.37;100.00;59669.53;5028236;28;20029;-66
2021/07/27 06:39:16;;;;;;;0.65;0.10;;;;;;;-142.37;100.00;59669.53;5025857;28;20034;-65
2021/07/27 06:41:42;;;;;;;1.15;0.22;;;;;;;-142.37;100.00;59669.53;5016582;28;20025;-66
2021/07/27 06:44:07;;;;;;;1.33;0.50;;;;;;;-142.37;100.00;59669.53;5034817;28;20372;-66
2021/07/27 06:46:33;;;;;;;0.88;0.30;;;;;;;-142.37;100.00;59669.53;5019050;28;20030;-65
2021/07/27 06:48:58;;;;;;;0.45;0.28;;;;;;;-142.37;100.00;59669.53;5035284;28;20021;-65
2021/07/27 06:51:24;;;;;;;1.27;0.30;;;;;;;-142.37;100.00;59669.53;5024359;28;20014;-65
2021/07/27 06:53:50;;;;;;;0.88;0.30;;;;;;;-142.37;100.00;59669.53;5034380;28;20022;-64
2021/07/27 06:56:16;;;;;;;1.17;0.40;;;;;;;-142.37;100.00;59669.53;5035604;28;20116;-67
2021/07/27 06:58:41;;;;;;;0.30;0.30;;;;;;;-142.37;100.00;59669.53;5034997;28;20052;-64
2021/07/27 07:01:09;;;;;;;1.80;0.60;;;;;;;-142.37;100.00;59669.53;5019870;28;20076;-64
2021/07/27 07:03:36;;;;;;;0.40;0.30;;;;;;;-142.37;100.00;59669.53;5030293;28;20034;-65
2021/07/27 07:06:03;;;;;;;1.55;0.50;;;;;;;-142.37;100.00;59669.53;5035218;28;20029;-64
2021/07/27 07:08:28;;;;;;;1.38;0.35;;;;;;;-142.37;100.00;59669.53;5025973;28;20027;-65
2021/07/27 07:10:55;;;;;;;0.45;0.43;;;;;;;-142.37;100.00;59669.53;5031568;28;20120;-66
2021/07/27 07:13:20;;;;;;;2.00;0.50;;;;;;;-142.37;100.00;59669.53;5030910;28;20021;-66
2021/07/27 07:15:45;;;;;;;1.48;0.50;;;;;;;-142.37;100.00;59669.53;5028341;28;20060;-65
2021/07/27 07:18:11;;;;;;;1.05;0.38;;;;;;;-142.37;100.00;59669.53;5034914;28;20029;-65
2021/07/27 07:20:36;;;;;;;0.52;0.20;;;;;;;-142.37;100.00;59669.53;5033980;28;20499;-65
2021/07/27 07:23:02;;;;;;;1.30;0.30;;;;;;;-142.37;100.00;59669.53;5033686;28;20059;-65
2021/07/27 07:25:27;;;;;;;1.83;0.30;;;;;;;-142.37;100.00;59669.53;5034574;28;20029;-66
2021/07/27 07:27:52;;;;;;;1.65;0.82;;;;;;;-142.37;100.00;59669.53;5037807;28;20460;-66
2021/07/27 07:30:18;;;;;;;1.10;0.60;;;;;;;-142.37;100.00;59669.53;5035751;28;20030;-70
2021/07/27 07:32:43;;;;;;;0.75;0.35;;;;;;;-142.37;100.00;59669.53;5032656;28;20120;-67
2021/07/27 07:35:09;;;;;;;1.20;0.40;;;;;;;-142.37;100.00;59669.53;5033994;28;20108;-68
2021/07/27 07:37:34;;;;;;;3.15;0.60;;;;;;;-142.37;100.00;59669.53;5034529;28;20049;-66
2021/07/27 07:40:00;;;;;;;1.83;0.40;;;;;;;-142.37;100.00;59669.53;5036139;28;20021;-68
2021/07/27 07:42:25;;;;;;;0.60;0.38;;;;;;;-142.37;100.00;59669.53;5037896;28;20025;-64
2021/07/27 07:44:50;;;;;;;0.52;0.50;;;;;;;-142.37;100.00;59669.53;5033882;28;20037;-67
2021/07/27 07:47:15;;;;;;;0.88;0.30;;;;;;;-142.37;100.00;59669.53;5033362;28;20426;-65
2021/07/27 07:49:41;;;;;;;0.85;0.50;;;;;;;-142.37;100.00;59669.53;5033238;28;20600;-65
2021/07/27 07:52:06;;;;;;;2.08;0.68;;;;;;;-142.37;100.00;59669.53;5031296;28;20034;-66
2021/07/27 07:54:33;;;;;;;3.13;0.63;;;;;;;-142.37;100.00;59669.53;5036066;28;20013;-66
2021/07/27 07:56:59;;;;;;;0.80;0.30;;;;;;;-142.37;100.00;59669.53;5034613;28;20043;-66
2021/07/27 07:59:24;;;;;;;1.40;0.40;;;;;;;-142.37;100.00;59669.53;5037165;28;20041;-66
2021/07/27 08:01:55;;;;;;;0.80;0.50;;;;;;;-142.37;100.00;59669.53;5036002;28;20037;-67
2021/07/27 08:04:21;;;;;;;3.05;0.75;;;;;;;-142.37;100.00;59669.53;5033858;28;20077;-65
2021/07/27 08:06:46;;;;;;;0.98;0.60;;;;;;;-142.37;100.00;59669.53;5039776;28;20032;-66
2021/07/27 08:09:12;;;;;;;4.10;0.93;;;;;;;-142.37;100.00;59669.53;5041504;28;20033;-65
2021/07/27 08:11:40;;;;;;;1.73;0.50;;;;;;;-142.37;100.00;59669.53;5033975;28;20028;-65
2021/07/27 08:14:05;;;;;;;1.20;0.55;;;;;;;-142.37;100.00;59669.53;5033836;28;20527;-67
2021/07/27 08:16:31;;;;;;;2.60;1.73;;;;;;;-142.37;100.00;59669.53;5035062;28;20155;-65
2021/07/27 08:18:56;;;;;;;1.50;0.50;;;;;;;-142.37;100.00;59669.53;5036368;28;20029;-66
2021/07/27 08:21:24;;;;;;;2.17;0.60;;;;;;;-142.37;100.00;59669.53;5030544;28;20025;-65
2021/07/27 08:23:50;;;;;;;1.48;0.65;;;;;;;-142.37;100.00;59669.53;5035316;28;20029;-66
2021/07/27 08:26:15;;;;;;;1.05;0.85;;;;;;;-142.37;100.00;59669.53;5051596;28;20021;-67
2021/07/27 08:28:42;;;;;;;1.10;0.70;;;;;;;-142.37;100.00;59669.53;5045762;28;20020;-66
2021/07/27 08:31:10;;;;;;;1.65;0.60;;;;;;;-142.37;100.00;59669.53;5048162;28;20037;-65
2021/07/27 08:33:36;;;;;;;0.88;0.57;;;;;;;-142.37;100.00;59669.53;5051875;28;20033;-64
2021/07/27 08:36:02;;;;;;;2.63;0.60;;;;;;;-142.37;100.00;59669.53;5036990;28;20063;-67
2021/07/27 08:38:27;;;;;;;0.93;0.57;;;;;;;-142.37;100.00;59669.53;5040233;28;20100;-65
2021/07/27 08:40:57;;;;;;;0.93;0.40;;;;;;;-142.37;100.00;59669.53;5033990;28;20038;-65
2021/07/27 08:43:23;;;;;;;0.85;0.50;;;;;;;-142.37;100.00;59669.53;5028187;28;20452;-64
2021/07/27 08:45:50;;;;;;;1.52;0.50;;;;;;;-142.37;100.00;59669.53;5032968;28;20025;-64
2021/07/27 08:48:16;;;;;;;0.50;0.50;;;;;;;-142.37;100.00;59669.53;5043814;28;20024;-65
2021/07/27 08:50:43;;;;;;;0.98;0.80;;;;;;;-142.37;100.00;59669.53;5037672;28;20105;-64
2021/07/27 08:53:09;;;;;;;2.83;0.60;;;;;;;-142.37;100.00;59669.53;5034652;28;20029;-63
2021/07/27 08:55:34;;;;;;;1.08;0.60;;;;;;;-142.37;100.00;59669.53;5033189;28;20036;-64
2021/07/27 08:58:00;;;;;;;0.98;0.35;;;;;;;-142.37;100.00;59669.53;5036092;28;20407;-64
2021/07/27 09:00:27;;;;;;;0.73;0.68;;;;;;;-142.37;100.00;59669.53;5040756;28;20483;-64
2021/07/27 09:02:52;;;;;;;0.70;0.43;;;;;;;-142.37;100.00;59669.53;5031968;28;20052;-64
2021/07/27 09:05:18;;;;;;;1.23;0.60;;;;;;;-142.37;100.00;59669.53;5031454;28;20056;-64
2021/07/27 09:07:44;;;;;;;1.42;0.82;;;;;;;-142.37;100.00;59669.53;5031655;28;20083;-64
2021/07/27 09:10:22;;;;;;;2.30;0.60;;;;;;;-142.37;100.00;59669.53;5034300;28;20064;-63
2021/07/27 09:13:02;;;;;;;2.20;0.50;;;;;;;-142.37;100.00;59669.53;5032752;28;20037;-64
2021/07/27 09:15:29;;;;;;;1.98;0.60;;;;;;;-142.37;100.00;59669.53;5030933;28;20053;-64
2021/07/27 09:17:56;;;;;;;0.77;0.52;;;;;;;-142.37;100.00;59669.53;5029338;28;20060;-63
2021/07/27 09:20:30;;;;;;;0.85;0.60;;;;;;;-142.37;100.00;59669.53;5036986;28;20080;-66
2021/07/27 09:22:56;;;;;;;1.02;0.50;;;;;;;-142.37;100.00;59669.53;5033594;28;20025;-64
2021/07/27 09:25:27;;;;;;;0.95;0.50;;;;;;;-142.37;100.00;59669.53;5033286;28;20088;-64
2021/07/27 09:28:09;;;;;;;2.05;0.80;;;;;;;-142.37;100.00;59669.53;5032956;28;20108;-62
2021/07/27 09:30:40;;;;;;;0.60;0.40;;;;;;;-142.37;100.00;59669.53;5032473;28;20022;-63
2021/07/27 09:33:07;;;;;;;0.50;0.50;;;;;;;-142.37;100.00;59669.53;5037738;28;20064;-63
2021/07/27 09:35:33;;;;;;;1.63;0.52;;;;;;;-142.37;100.00;59669.53;5032101;28;20049;-64
2021/07/27 09:38:19;;;;;;;1.23;0.60;;;;;;;-142.37;100.00;59669.53;5032641;28;20025;-64
2021/07/27 09:40:51;;;;;;;1.00;0.60;;;;;;;-142.37;100.00;59669.53;5031344;28;20022;-63
2021/07/27 09:43:18;;;;;;;1.67;0.45;;;;;;;-142.37;100.00;59669.53;5029612;28;20121;-63
2021/07/27 09:45:49;;;;;;;0.95;0.40;;;;;;;-142.37;100.00;59669.53;5032421;28;20063;-64
2021/07/27 09:48:16;;;;;;;0.95;0.45;;;;;;;-142.37;100.00;59669.53;5032267;28;20083;-64
2021/07/27 09:50:46;;;;;;;1.63;0.60;;;;;;;-142.37;100.00;59669.53;5030967;28;20030;-64
2021/07/27 09:53:13;;;;;;;1.17;0.85;;;;;;;-142.37;100.00;59669.53;5027339;28;20037;-63
2021/07/27 09:55:38;;;;;;;0.77;0.30;;;;;;;-142.37;100.00;59669.53;5026848;28;20457;-62
2021/07/27 09:58:04;;;;;;;0.40;0.30;;;;;;;-142.37;100.00;59669.53;5012443;28;20101;-63
2021/07/27 10:00:29;;;;;;;0.63;0.60;;;;;;;-142.37;100.00;59669.53;5015324;28;20373;-63
2021/07/27 10:02:56;;;;;;;1.63;0.82;;;;;;;-142.37;100.00;59669.53;5019734;28;20373;-63
2021/07/27 10:05:23;;;;;;;1.15;0.52;;;;;;;-142.37;100.00;59669.53;5035538;28;20022;-63
2021/07/27 10:07:58;;;;;;;0.80;0.50;;;;;;;-142.37;100.00;59669.53;5037155;28;20017;-64
2021/07/27 10:10:39;;;;;;;1.40;0.47;;;;;;;-142.37;100.00;59669.53;5037190;28;20048;-64
2021/07/27 10:13:09;;;;;;;1.65;1.00;;;;;;;-142.37;100.00;59669.53;5036242;28;20124;-63
2021/07/27 10:15:43;;;;;;;1.23;0.65;;;;;;;-142.37;100.00;59669.53;5036966;28;20464;-63
2021/07/27 10:18:09;;;;;;;2.35;0.70;;;;;;;-142.37;100.00;59669.53;5036611;28;20025;-65
2021/07/27 10:20:34;;;;;;;1.38;0.70;;;;;;;-142.37;100.00;59669.53;5036841;28;20027;-64
2021/07/27 10:23:11;;;;;;;1.15;0.50;;;;;;;-142.37;100.00;59669.53;5036575;28;20030;-63
2021/07/27 10:25:36;;;;;;;0.80;0.40;;;;;;;-142.37;100.00;59669.53;5036828;28;20026;-63
2021/07/27 10:28:02;;;;;;;0.80;0.75;;;;;;;-142.37;100.00;59669.53;5035601;28;20028;-63
2021/07/27 10:30:32;;;;;;;0.70;0.50;;;;;;;-142.37;100.00;59669.53;5036775;28;20084;-64
2021/07/27 10:32:57;;;;;;;2.17;0.68;;;;;;;-142.37;100.00;59669.53;5036548;28;20021;-62
2021/07/27 10:35:30;;;;;;;1.90;0.90;;;;;;;-142.37;100.00;59669.53;5036637;28;20573;-63
2021/07/27 10:38:13;;;;;;;0.80;0.70;;;;;;;-142.37;100.00;59669.53;5036661;28;20037;-63
2021/07/27 10:40:40;;;;;;;1.75;0.60;;;;;;;-142.37;100.00;59669.53;5036462;28;20104;-64
2021/07/27 10:43:07;;;;;;;0.55;0.40;;;;;;;-142.37;100.00;59669.53;5036831;28;20450;-62
2021/07/27 10:45:33;;;;;;;2.22;0.60;;;;;;;-142.37;100.00;59669.53;5036325;28;20026;-64
2021/07/27 10:47:58;;;;;;;1.08;0.43;;;;;;;-142.37;100.00;59669.53;5036439;28;20026;-63
2021/07/27 10:50:27;;;;;;;1.25;0.55;;;;;;;-142.37;100.00;59669.53;5036317;28;20063;-62
2021/07/27 10:53:06;;;;;;;1.40;0.70;;;;;;;-142.37;100.00;59669.53;5035602;28;20029;-63
2021/07/27 10:55:36;;;;;;;1.67;0.60;;;;;;;-142.37;100.00;59669.53;5036199;28;20024;-63
2021/07/27 10:58:06;;;;;;;1.55;0.35;;;;;;;-142.37;100.00;59669.53;5035819;28;20025;-64
2021/07/27 11:00:35;;;;;;;1.10;0.60;;;;;;;-142.37;100.00;59669.53;5034737;28;20048;-62
2021/07/27 11:03:02;;;;;;;1.92;0.82;;;;;;;-142.37;100.00;59669.53;5034776;28;20431;-63
2021/07/27 11:05:28;;;;;;;0.82;0.50;;;;;;;-142.37;100.00;59669.53;5044051;28;20022;-63
2021/07/27 11:07:54;;;;;;;3.05;0.95;;;;;;;-142.37;100.00;59669.53;5035527;28;20029;-62
2021/07/27 11:10:21;;;;;;;0.20;0.20;;;;;;;-142.37;100.00;59669.53;5034424;28;20033;-63
2021/07/27 11:12:48;;;;;;;3.10;1.00;;;;;;;-142.37;100.00;59669.53;5034837;28;20032;-63
2021/07/27 11:15:18;;;;;;;1.88;0.50;;;;;;;-142.37;100.00;59669.53;5034909;28;20049;-63
2021/07/27 11:17:48;;;;;;;1.63;0.40;;;;;;;-142.37;100.00;59669.53;5035988;28;20029;-62
2021/07/27 11:20:20;;;;;;;0.73;0.45;;;;;;;-142.37;100.00;59669.53;5035076;28;20125;-64
2021/07/27 11:22:49;;;;;;;1.92;0.82;;;;;;;-142.37;100.00;59669.53;5049860;28;20053;-63
2021/07/27 11:25:19;;;;;;;0.43;0.40;;;;;;;-142.37;100.00;59669.53;5035489;28;20561;-63
2021/07/27 11:27:45;;;;;;;3.17;0.65;;;;;;;-142.37;100.00;59669.53;5034373;28;20045;-63